This is the latest recevied weather packets stored in our database for station/object NZ3C. If no packets are shown the sender has not sent any weather packets the latest 1 day(s).
| Time | Temp. | Humidity | Pressure | Rain* | Wind** | Luminosity | Snow |
|---|---|---|---|---|---|---|---|
| 1778077550 | 25° C | 55% | 1016.6 hPa | 0 mm | - | 673 W/m² | - |
| 1778076644 | 23.89° C | 59% | 1016.9 hPa | 0 mm | - | 312 W/m² | - |
| 1778075431 | 22.78° C | 67% | 1017.2 hPa | 0 mm | - | 429 W/m² | - |
| 1778074218 | 22.78° C | 69% | 1017 hPa | 0 mm | - | 305 W/m² | - |
| 1778073915 | 22.78° C | 68% | 1016.4 hPa | 0 mm | - | 315 W/m² | - |
| 1778073006 | 21.11° C | 73% | 1016.7 hPa | 0 mm | - | 249 W/m² | - |
| 1778070889 | 20° C | 75% | 1016.8 hPa | 0 mm | - | 157 W/m² | - |
| 1778067863 | 17.22° C | 84% | 1016.8 hPa | 0 mm | - | 138 W/m² | - |
| 1778066955 | 17.22° C | 85% | 1016.7 hPa | 0 mm | - | 69 W/m² | - |
| 1778066653 | 17.22° C | 85% | 1016.4 hPa | 0 mm | - | 69 W/m² | - |
| 1778066350 | 16.67° C | 86% | 1016.5 hPa | 0 mm | - | 73 W/m² | - |
| 1778066048 | 16.67° C | 87% | 1016.2 hPa | 0 mm | - | 67 W/m² | - |
| 1778065745 | 16.11° C | 88% | 1016.4 hPa | 0 mm | - | 49 W/m² | - |
| 1778064835 | 15.56° C | 88% | 1016.5 hPa | 0 mm | - | 25 W/m² | - |
| 1778063928 | 15.56° C | 88% | 1016.6 hPa | 0 mm | - | 13 W/m² | - |
| 1778062717 | 15.56° C | 87% | 1016.8 hPa | 0 mm | - | 3 W/m² | - |
| 1778061204 | 15.56° C | 87% | 1016.6 hPa | 0 mm | - | 0 W/m² | - |
| 1778060901 | 15.56° C | 87% | 1016.3 hPa | 0 mm | - | 0 W/m² | - |
| 1778060600 | 15.56° C | 87% | 1016.3 hPa | 0 mm | - | 0 W/m² | - |
| 1778059994 | 15.56° C | 88% | 1016.5 hPa | 0 mm | - | 0 W/m² | - |
| 1778058482 | 15° C | 88% | 1016.6 hPa | 0 mm | - | 0 W/m² | - |
| 1778057875 | 15° C | 88% | 1016.4 hPa | 0 mm | - | 0 W/m² | - |
| 1778056662 | 15° C | 87% | 1016.4 hPa | 0 mm | - | 0 W/m² | - |
| 1778056057 | 15° C | 87% | 1016.2 hPa | 0 mm | - | 0 W/m² | - |
| 1778055752 | 15° C | 87% | 1016.5 hPa | 0 mm | - | 0 W/m² | - |
* Rain latest hour (hover to see other rain measurements)
** Current wind speed in m/s (hover to see current wind gust speed)